createdAt,value
2022-12-07T00:01:12.310Z,0.37
2022-12-07T00:06:15.438Z,0.40
2022-12-07T00:11:22.337Z,0.43
2022-12-07T00:16:26.981Z,0.36
2022-12-07T00:21:30.359Z,0.46
2022-12-07T00:26:35.101Z,0.47
2022-12-07T00:31:39.832Z,0.52
2022-12-07T00:36:41.653Z,0.58
2022-12-07T00:41:43.331Z,0.57
2022-12-07T00:46:46.330Z,0.71
2022-12-07T00:51:49.862Z,0.81
2022-12-07T00:56:51.298Z,0.97
2022-12-07T01:01:52.896Z,1.06
2022-12-07T01:06:54.346Z,0.94
2022-12-07T01:11:55.814Z,0.79
2022-12-07T01:16:57.386Z,0.63
2022-12-07T01:21:58.849Z,0.51
2022-12-07T01:27:00.259Z,0.33
2022-12-07T01:32:01.698Z,0.21
2022-12-07T01:37:03.143Z,0.13
2022-12-07T01:42:04.655Z,0.06
2022-12-07T01:47:06.313Z,0.20
2022-12-07T01:52:30.964Z,0.07
2022-12-07T01:57:35.095Z,-0.07
2022-12-07T02:02:42.715Z,-0.06
2022-12-07T02:07:47.526Z,-0.22
2022-12-07T02:12:57.243Z,-0.38
2022-12-07T02:18:10.039Z,-0.53
2022-12-07T02:23:42.302Z,-0.64
2022-12-07T02:28:53.004Z,-0.72
2022-12-07T02:34:02.995Z,-0.78
2022-12-07T02:39:18.280Z,-0.77
2022-12-07T02:44:24.259Z,-0.87
2022-12-07T02:49:28.411Z,-0.81
2022-12-07T02:54:29.815Z,-0.85
2022-12-07T02:59:33.938Z,-0.87
2022-12-07T03:05:03.321Z,-0.97
2022-12-07T03:10:14.053Z,-1.10
2022-12-07T03:15:27.514Z,-1.09
2022-12-07T03:20:30.343Z,-1.31
2022-12-07T03:25:32.372Z,-1.37
2022-12-07T03:30:43.668Z,-1.46
2022-12-07T03:35:52.008Z,-1.47
2022-12-07T03:41:01.436Z,-1.54
2022-12-07T03:46:24.361Z,-1.59
2022-12-07T03:51:38.637Z,-1.62
2022-12-07T03:56:41.868Z,-1.72
2022-12-07T04:01:45.435Z,-1.74
2022-12-07T04:06:47.202Z,-1.80
2022-12-07T04:11:48.735Z,-1.75
2022-12-07T04:16:57.387Z,-1.84
2022-12-07T04:22:00.546Z,-1.70
2022-12-07T04:27:02.484Z,-1.58
2022-12-07T04:32:04.019Z,-1.65
2022-12-07T04:37:05.584Z,-1.72
2022-12-07T04:42:07.054Z,-1.69
2022-12-07T04:47:08.489Z,-1.74
2022-12-07T04:52:10.384Z,-1.83
2022-12-07T04:57:11.857Z,-1.81
2022-12-07T05:02:13.347Z,-1.83
2022-12-07T05:07:14.884Z,-1.89
2022-12-07T05:12:17.467Z,-1.95
2022-12-07T05:17:18.983Z,-1.98
2022-12-07T05:22:20.397Z,-2.00
2022-12-07T05:27:22.307Z,-2.02
2022-12-07T05:32:23.764Z,-2.01
2022-12-07T05:37:25.195Z,-2.04
2022-12-07T05:42:26.603Z,-2.09
2022-12-07T05:47:28.101Z,-2.08
2022-12-07T05:52:29.763Z,-2.10
2022-12-07T05:57:31.211Z,-2.05
2022-12-07T06:02:32.805Z,-1.96
2022-12-07T06:07:34.507Z,-1.88
2022-12-07T06:12:36.104Z,-1.84
2022-12-07T06:17:38.023Z,-1.80
2022-12-07T06:22:39.486Z,-1.78
2022-12-07T06:27:40.933Z,-1.72
2022-12-07T06:32:42.419Z,-1.62
2022-12-07T06:37:43.882Z,-1.64
2022-12-07T06:42:45.385Z,-1.55
2022-12-07T06:47:47.111Z,-1.48
2022-12-07T06:52:48.851Z,-1.41
2022-12-07T06:57:50.372Z,-1.49
2022-12-07T07:02:51.911Z,-1.51
2022-12-07T07:08:21.980Z,-1.58
2022-12-07T07:13:14.920Z,-1.53
2022-12-07T07:18:16.448Z,-1.55
2022-12-07T07:23:18.264Z,-1.62
2022-12-07T07:28:19.878Z,-1.65
2022-12-07T07:33:21.375Z,-1.63
2022-12-07T07:38:22.791Z,-1.54
2022-12-07T07:43:24.275Z,-1.28
2022-12-07T07:48:26.243Z,-1.20
2022-12-07T07:53:27.672Z,-1.14
2022-12-07T07:58:29.090Z,-1.08
2022-12-07T08:03:30.495Z,-1.10
2022-12-07T08:08:32.592Z,-1.08
2022-12-07T08:13:34.168Z,-1.02
2022-12-07T08:18:40.786Z,-1.02
2022-12-07T08:23:43.015Z,-0.93
2022-12-07T08:28:45.937Z,-0.88
2022-12-07T08:33:48.654Z,-0.87
2022-12-07T08:39:29.027Z,-0.76
2022-12-07T08:44:11.986Z,-0.70
2022-12-07T08:49:24.086Z,-0.62
2022-12-07T08:54:25.801Z,-0.58
2022-12-07T08:59:28.695Z,-0.53
2022-12-07T09:04:30.220Z,-0.43
2022-12-07T09:09:31.791Z,-0.36
2022-12-07T09:14:33.916Z,-0.31
2022-12-07T09:19:35.468Z,-0.25
2022-12-07T09:24:37.051Z,-0.19
2022-12-07T09:29:38.661Z,-0.16
2022-12-07T09:34:41.497Z,-0.16
2022-12-07T09:39:49.424Z,-0.14
2022-12-07T09:44:51.667Z,-0.01
2022-12-07T09:49:56.377Z,0.04
2022-12-07T09:54:57.887Z,0.06
2022-12-07T10:00:05.340Z,0.28
2022-12-07T10:05:10.712Z,0.36
2022-12-07T10:10:38.075Z,0.59
2022-12-07T10:15:45.245Z,0.90
2022-12-07T10:20:48.480Z,1.07
2022-12-07T10:25:50.658Z,1.39
2022-12-07T10:30:57.929Z,1.45
2022-12-07T10:36:00.524Z,1.71
2022-12-07T10:41:08.588Z,1.85
2022-12-07T10:46:14.674Z,1.94
2022-12-07T10:51:54.015Z,2.15
2022-12-07T10:57:27.751Z,2.61
2022-12-07T11:02:35.092Z,2.75
2022-12-07T11:07:46.248Z,2.43
2022-12-07T11:13:16.863Z,2.96
2022-12-07T11:18:30.308Z,3.36
2022-12-07T11:23:47.127Z,3.25
2022-12-07T11:29:02.271Z,3.02
2022-12-07T11:34:16.098Z,2.68
2022-12-07T11:39:21.844Z,2.54
2022-12-07T11:44:46.132Z,2.26
2022-12-07T11:49:52.872Z,2.00
2022-12-07T11:54:54.928Z,1.79
2022-12-07T12:00:08.455Z,1.90
2022-12-07T12:05:23.015Z,1.99
2022-12-07T12:10:31.390Z,2.00
2022-12-07T12:15:57.078Z,2.11
2022-12-07T12:21:04.704Z,2.13
2022-12-07T12:26:08.993Z,2.20
2022-12-07T12:31:26.050Z,2.32
2022-12-07T12:36:27.604Z,2.64
2022-12-07T12:41:53.760Z,2.73
2022-12-07T12:46:59.222Z,2.67
2022-12-07T12:52:09.826Z,2.47
2022-12-07T12:57:27.063Z,2.33
2022-12-07T13:02:49.476Z,2.19
2022-12-07T13:07:55.709Z,2.12
2022-12-07T13:13:14.811Z,2.06
2022-12-07T13:18:28.174Z,1.97
2022-12-07T13:23:56.318Z,1.76
2022-12-07T13:29:13.488Z,1.59
2022-12-07T13:34:33.311Z,1.51
2022-12-07T13:39:36.100Z,1.51
2022-12-07T13:44:42.530Z,1.25
2022-12-07T13:49:54.048Z,1.20
2022-12-07T13:55:00.665Z,0.95
2022-12-07T14:00:04.795Z,0.67
2022-12-07T14:05:24.395Z,0.46
2022-12-07T14:10:28.587Z,0.25
2022-12-07T14:15:32.879Z,0.13
2022-12-07T14:20:40.736Z,-0.01
2022-12-07T14:25:51.531Z,-0.10
2022-12-07T14:30:53.775Z,-0.12
2022-12-07T14:35:58.804Z,-0.13
2022-12-07T14:41:20.612Z,-0.15
2022-12-07T14:46:22.108Z,-0.25
2022-12-07T14:56:46.622Z,-0.34
2022-12-07T15:01:48.233Z,-0.37
2022-12-07T15:07:04.775Z,-0.48
2022-12-07T15:12:06.379Z,-0.54
2022-12-07T15:17:23.090Z,-0.59
2022-12-07T15:22:36.595Z,-0.63
2022-12-07T15:27:39.735Z,-0.62
2022-12-07T15:32:41.488Z,-0.69
2022-12-07T15:37:43.043Z,-0.76
2022-12-07T15:42:44.523Z,-0.76
2022-12-07T15:53:07.649Z,-0.87
2022-12-07T15:58:09.135Z,-0.90
2022-12-07T16:03:10.657Z,-0.96
2022-12-07T16:08:12.300Z,-1.00
2022-12-07T16:13:14.553Z,-1.03
2022-12-07T16:18:16.100Z,-0.99
2022-12-07T16:23:17.604Z,-1.00
2022-12-07T16:28:19.150Z,-1.01
2022-12-07T16:33:20.635Z,-1.03
2022-12-07T16:38:22.045Z,-1.08
2022-12-07T16:43:23.779Z,-1.09
2022-12-07T16:48:25.497Z,-1.09
2022-12-07T16:53:27.095Z,-1.07
2022-12-07T16:58:29.055Z,-1.17
2022-12-07T17:03:30.455Z,-1.28
2022-12-07T17:08:32.000Z,-1.32
2022-12-07T17:13:52.338Z,-1.34
2022-12-07T17:18:53.939Z,-1.36
2022-12-07T17:23:55.732Z,-1.30
2022-12-07T17:28:58.634Z,-1.30
2022-12-07T17:34:00.219Z,-1.30
2022-12-07T17:39:03.478Z,-1.28
2022-12-07T17:44:07.460Z,-1.34
2022-12-07T17:49:08.962Z,-1.45
2022-12-07T17:54:10.815Z,-1.46
2022-12-07T17:59:12.772Z,-1.46
2022-12-07T18:04:14.391Z,-1.39
2022-12-07T18:09:15.888Z,-1.39
2022-12-07T18:14:17.695Z,-1.45
2022-12-07T18:19:19.307Z,-1.40
2022-12-07T18:24:20.916Z,-1.45
2022-12-07T18:29:22.545Z,-1.45
2022-12-07T18:34:24.115Z,-1.42
2022-12-07T18:39:31.542Z,-1.40
2022-12-07T18:44:35.020Z,-1.34
2022-12-07T18:49:36.515Z,-1.33
2022-12-07T18:54:38.837Z,-1.33
2022-12-07T18:59:46.204Z,-1.31
2022-12-07T19:04:47.716Z,-1.26
2022-12-07T19:09:49.195Z,-1.45
2022-12-07T19:14:50.703Z,-1.29
2022-12-07T19:19:52.209Z,-1.26
2022-12-07T19:24:55.071Z,-1.26
2022-12-07T19:29:56.519Z,-1.24
2022-12-07T19:34:58.113Z,-1.23
2022-12-07T19:39:59.637Z,-1.21
2022-12-07T19:45:02.342Z,-1.22
2022-12-07T19:50:04.355Z,-1.11
2022-12-07T19:55:06.431Z,-1.24
2022-12-07T20:00:09.724Z,-1.21
2022-12-07T20:05:11.594Z,-1.37
2022-12-07T20:10:13.397Z,-1.25
2022-12-07T20:15:14.977Z,-1.20
2022-12-07T20:20:16.641Z,-1.07
2022-12-07T20:25:20.005Z,-0.98
2022-12-07T20:30:21.567Z,-0.85
2022-12-07T20:35:23.096Z,-0.93
2022-12-07T20:40:24.651Z,-1.00
2022-12-07T20:45:26.240Z,-1.07
2022-12-07T20:50:29.451Z,-1.10
2022-12-07T20:55:31.023Z,-1.12
2022-12-07T21:00:32.907Z,-1.05
2022-12-07T21:05:35.369Z,-1.00
2022-12-07T21:10:36.952Z,-0.92
2022-12-07T21:15:39.574Z,-0.93
2022-12-07T21:20:41.168Z,-0.91
2022-12-07T21:25:42.692Z,-0.95
2022-12-07T21:31:11.642Z,-0.95
2022-12-07T21:36:07.477Z,-0.98
2022-12-07T21:41:19.020Z,-0.87
2022-12-07T21:46:22.278Z,-0.87
2022-12-07T21:51:27.203Z,-0.84
2022-12-07T21:56:31.699Z,-0.81
2022-12-07T22:01:37.707Z,-0.72
2022-12-07T22:06:39.453Z,-0.62
2022-12-07T22:11:41.154Z,-0.52
2022-12-07T22:16:42.677Z,-0.46
2022-12-07T22:21:44.206Z,-0.42
2022-12-07T22:26:45.672Z,-0.38
2022-12-07T22:31:53.247Z,-0.26
2022-12-07T22:36:55.368Z,-0.34
2022-12-07T22:41:56.767Z,-0.47
2022-12-07T22:46:58.385Z,-0.50
2022-12-07T22:51:59.915Z,-0.49
2022-12-07T22:57:02.179Z,-0.51
2022-12-07T23:02:03.639Z,-0.51
2022-12-07T23:07:05.066Z,-0.50
2022-12-07T23:12:25.879Z,-0.53
2022-12-07T23:17:27.304Z,-0.54
2022-12-07T23:22:28.756Z,-0.60
2022-12-07T23:27:30.240Z,-0.57
2022-12-07T23:32:31.659Z,-0.54
2022-12-07T23:37:33.105Z,-0.43
2022-12-07T23:42:34.589Z,-0.49
2022-12-07T23:47:36.072Z,-0.59
2022-12-07T23:52:37.615Z,-0.60
2022-12-07T23:57:39.023Z,-0.62
